Rowena, Missouri
Current Conditions -  °F | °C
As of 3:54 AM on Saturday 25 Oct 2014 (Local Time) from KCOU Reporting Station
Clear Clear  
Wind Chill: 61°   Ceiling: Unl
Heat Index: 61°   Visibility: 7mi
Dew Point: 60°   Wind: 3mph
Humidity: 97%   Direction: 270°W
Pressure: 30"   Gusts: NA
Location:  39.2043°N, 92.1568°W
Report Text: KCOU 250854Z AUTO 27003KT 7SM CLR 16/16 A3000 RMK AO2 SLP154 T01610156 50000
Loading
Personal Weather Stations






























Interactive Weather Map New forecast layout! Learn more

10-Day Weather Forecast

Advertisements
Track Severe Weather on mobile